Date,TemperatureHighF,TemperatureAvgF,TemperatureLowF,DewpointHighF,DewpointAvgF,DewpointLowF,HumidityHigh,HumidityAvg,HumidityLow,PressureMaxIn,PressureMinIn,WindSpeedMaxMPH,WindSpeedAvgMPH,GustSpeedMaxMPH,PrecipitationSumIn
2013-3-1,71.2,54.0,33.1,34.0,25.0,16.0,77,39,15,30.31,30.10,11,3,16,0.00
2013-3-2,66.7,53.2,40.1,31.0,28.4,26.0,62,41,24,30.44,30.26,14,4,17,0.00
2013-3-3,77.3,58.7,34.6,46.0,33.9,24.0,67,42,21,30.28,29.95,17,6,21,0.00
2013-3-4,88.0,68.5,52.1,57.0,50.5,42.0,91,59,21,29.95,29.70,13,5,18,0.00
2013-3-5,68.3,58.3,42.5,57.0,32.0,16.0,95,43,16,30.35,29.76,25,8,34,0.00
2013-3-6,64.2,50.5,34.6,35.0,20.6,15.0,56,33,15,30.46,30.23,14,4,17,0.00
2013-3-7,73.0,58.2,40.2,57.0,48.9,35.0,90,72,50,30.24,30.08,15,5,19,0.00
2013-3-8,70.8,65.0,61.4,66.0,61.1,55.0,94,87,79,30.12,29.96,15,6,22,0.02
2013-3-9,77.7,69.1,64.3,68.0,64.8,61.0,96,86,70,29.99,29.60,19,8,31,0.03
2013-3-10,70.8,63.1,51.1,65.0,43.6,33.0,95,53,26,30.13,29.62,20,7,25,0.06
2013-3-11,71.4,55.3,39.9,34.0,28.9,24.0,71,41,19,30.20,30.00,12,4,17,0.00
2013-3-12,80.3,61.5,40.3,44.0,32.0,26.0,60,37,15,30.21,30.06,11,4,18,0.00
2013-3-13,77.0,60.8,42.9,50.0,41.1,38.0,88,53,27,30.43,30.22,10,4,15,0.00
2013-3-14,79.4,63.2,43.3,57.0,49.3,42.0,95,65,30,30.39,30.20,13,5,17,0.00
2013-3-15,81.7,66.9,51.0,57.0,51.2,42.0,96,63,25,30.23,29.98,13,6,19,0.00
2013-3-16,85.6,68.7,57.5,63.0,59.0,54.0,94,74,34,29.98,29.72,16,8,22,0.00
2013-3-17,88.2,73.5,65.6,67.0,63.2,59.0,93,73,38,29.79,29.61,13,5,18,0.00
2013-3-18,96.2,74.9,62.2,67.0,55.2,22.0,97,63,7,29.90,29.69,17,5,22,0.00
2013-3-19,79.2,68.3,53.7,66.0,57.8,47.0,87,70,57,29.97,29.79,13,5,15,0.00
2013-3-20,73.6,64.0,57.0,65.0,50.0,41.0,89,63,32,30.20,29.94,20,8,27,0.00
2013-3-21,77.0,66.0,53.7,63.0,55.4,43.0,91,70,57,30.00,29.62,15,6,20,0.00
2013-3-22,88.0,73.9,65.2,69.0,65.9,62.0,96,78,43,29.71,29.58,11,4,17,0.00
2013-3-23,83.3,67.1,55.1,68.0,57.6,51.0,91,73,51,29.75,29.56,14,6,16,0.00
2013-3-24,67.3,55.8,42.3,59.0,31.2,20.0,90,44,19,30.16,29.68,21,8,27,0.00
2013-3-25,61.1,48.3,35.4,28.0,19.5,7.0,70,37,12,30.39,30.16,19,6,26,0.00
2013-3-26,67.6,52.3,34.8,32.0,22.4,18.0,63,36,15,30.51,30.29,10,4,13,0.00
2013-3-27,69.5,58.1,42.0,53.0,42.4,32.0,74,57,44,30.32,30.16,11,5,18,0.00
2013-3-28,71.7,65.2,59.9,60.0,57.6,53.0,87,76,65,30.20,30.11,12,5,17,0.00
2013-3-29,79.3,68.8,59.3,63.0,59.7,57.0,95,75,48,30.16,30.02,13,5,18,0.00
2013-3-30,85.9,73.2,64.6,66.0,63.5,61.0,92,74,43,30.08,29.86,12,6,18,0.00
2013-3-31,82.9,70.6,62.5,66.0,64.2,60.0,95,81,56,29.94,29.81,21,4,24,0.01